createdAt,value
2023-05-17T00:01:51.492Z,11.80
2023-05-17T00:04:20.050Z,11.80
2023-05-17T00:06:48.527Z,11.80
2023-05-17T00:09:17.003Z,11.80
2023-05-17T00:11:45.352Z,11.70
2023-05-17T00:14:14.332Z,11.80
2023-05-17T00:16:44.277Z,11.70
2023-05-17T00:19:12.973Z,11.70
2023-05-17T00:21:41.678Z,11.70
2023-05-17T00:24:10.413Z,11.70
2023-05-17T00:26:38.844Z,11.80
2023-05-17T00:29:07.434Z,11.70
2023-05-17T00:31:36.280Z,11.70
2023-05-17T00:34:06.036Z,11.70
2023-05-17T00:36:34.588Z,11.70
2023-05-17T00:39:03.138Z,11.60
2023-05-17T00:41:31.681Z,11.60
2023-05-17T00:44:00.154Z,11.60
2023-05-17T00:46:28.885Z,11.60
2023-05-17T00:48:57.540Z,11.60
2023-05-17T00:51:27.349Z,11.50
2023-05-17T00:53:56.521Z,11.50
2023-05-17T00:56:25.688Z,11.50
2023-05-17T00:58:55.038Z,11.40
2023-05-17T01:01:23.526Z,11.40
2023-05-17T01:03:52.287Z,11.30
2023-05-17T01:06:21.218Z,11.30
2023-05-17T01:08:51.222Z,11.20
2023-05-17T01:11:31.798Z,11.10
2023-05-17T01:14:07.837Z,11.10
2023-05-17T01:16:40.343Z,11.00
2023-05-17T01:19:22.348Z,10.90
2023-05-17T01:22:03.128Z,10.90
2023-05-17T01:24:46.698Z,10.90
2023-05-17T01:27:17.803Z,10.90
2023-05-17T01:29:47.327Z,10.80
2023-05-17T01:32:17.429Z,10.90
2023-05-17T01:34:45.963Z,10.90
2023-05-17T01:37:14.493Z,10.90
2023-05-17T01:39:43.075Z,11.00
2023-05-17T01:42:18.691Z,10.90
2023-05-17T01:44:51.686Z,11.00
2023-05-17T01:47:25.927Z,11.10
2023-05-17T01:49:56.716Z,11.20
2023-05-17T01:52:30.525Z,11.30
2023-05-17T01:55:06.054Z,11.40
2023-05-17T01:57:38.005Z,11.40
2023-05-17T02:00:09.229Z,11.50
2023-05-17T02:02:38.145Z,11.50
2023-05-17T02:05:07.256Z,11.50
2023-05-17T02:07:35.773Z,11.50
2023-05-17T02:10:04.769Z,11.50
2023-05-17T02:12:33.352Z,11.50
2023-05-17T02:15:03.096Z,11.60
2023-05-17T02:17:31.693Z,11.60
2023-05-17T02:20:00.172Z,11.60
2023-05-17T02:22:28.636Z,11.60
2023-05-17T02:24:57.044Z,11.60
2023-05-17T02:27:25.435Z,11.60
2023-05-17T02:29:54.180Z,11.60
2023-05-17T02:32:24.183Z,11.60
2023-05-17T02:34:52.603Z,11.60
2023-05-17T02:37:21.121Z,11.60
2023-05-17T02:39:49.640Z,11.50
2023-05-17T02:42:18.108Z,11.60
2023-05-17T02:44:48.516Z,11.60
2023-05-17T02:47:16.967Z,11.60
2023-05-17T02:49:46.604Z,11.60
2023-05-17T02:52:15.179Z,11.60
2023-05-17T02:54:44.554Z,11.60
2023-05-17T02:57:12.963Z,11.60
2023-05-17T02:59:41.364Z,11.60
2023-05-17T03:02:09.839Z,11.60
2023-05-17T03:04:38.333Z,11.70
2023-05-17T03:07:08.727Z,11.70
2023-05-17T03:09:37.592Z,11.70
2023-05-17T03:12:06.544Z,11.70
2023-05-17T03:14:35.143Z,11.70
2023-05-17T03:17:03.997Z,11.70
2023-05-17T03:19:32.413Z,11.70
2023-05-17T03:22:01.091Z,11.70
2023-05-17T03:24:30.875Z,11.70
2023-05-17T03:26:59.276Z,11.80
2023-05-17T03:29:27.704Z,11.80
2023-05-17T03:31:56.365Z,11.80
2023-05-17T03:34:24.824Z,11.70
2023-05-17T03:36:53.194Z,11.70
2023-05-17T03:39:21.772Z,11.70
2023-05-17T03:41:52.518Z,11.80
2023-05-17T03:44:20.923Z,11.70
2023-05-17T03:46:49.399Z,11.70
2023-05-17T03:49:18.321Z,11.70
2023-05-17T03:51:46.859Z,11.70
2023-05-17T03:54:15.327Z,11.70
2023-05-17T03:56:47.116Z,11.70
2023-05-17T03:59:17.515Z,11.70
2023-05-17T04:01:46.542Z,11.70
2023-05-17T04:04:15.110Z,11.80
2023-05-17T04:06:43.676Z,11.80
2023-05-17T04:09:14.012Z,11.80
2023-05-17T04:11:42.708Z,11.90
2023-05-17T04:14:11.237Z,11.90
2023-05-17T04:16:41.000Z,11.90
2023-05-17T04:19:09.585Z,11.90
2023-05-17T04:21:38.256Z,11.90
2023-05-17T04:24:07.938Z,12.00
2023-05-17T04:26:36.514Z,12.00
2023-05-17T04:29:04.970Z,12.10
2023-05-17T04:31:33.776Z,12.10
2023-05-17T04:34:03.500Z,12.10
2023-05-17T04:36:31.896Z,12.10
2023-05-17T04:39:00.431Z,12.20
2023-05-17T04:41:28.843Z,12.20
2023-05-17T04:43:57.601Z,12.20
2023-05-17T04:46:26.756Z,12.20
2023-05-17T04:48:56.321Z,12.20
2023-05-17T04:51:27.147Z,12.30
2023-05-17T04:53:55.625Z,12.30
2023-05-17T04:56:24.104Z,12.30
2023-05-17T04:58:53.049Z,12.30
2023-05-17T05:01:22.200Z,12.40
2023-05-17T05:03:50.804Z,12.40
2023-05-17T05:06:19.405Z,12.40
2023-05-17T05:08:49.057Z,12.40
2023-05-17T05:11:17.966Z,12.50
2023-05-17T05:13:46.452Z,12.50
2023-05-17T05:16:14.959Z,12.50
2023-05-17T05:18:43.338Z,12.60
2023-05-17T05:21:14.414Z,12.60
2023-05-17T05:23:42.820Z,12.60
2023-05-17T05:26:12.650Z,12.70
2023-05-17T05:28:41.142Z,12.70
2023-05-17T05:31:09.565Z,12.70
2023-05-17T05:33:38.231Z,12.80
2023-05-17T05:36:07.219Z,12.80
2023-05-17T05:38:36.461Z,12.70
2023-05-17T05:41:04.878Z,12.70
2023-05-17T05:43:36.193Z,12.70
2023-05-17T05:46:04.770Z,12.80
2023-05-17T05:48:33.369Z,12.90
2023-05-17T05:51:02.355Z,13.00
2023-05-17T05:53:30.765Z,13.00
2023-05-17T05:55:59.198Z,13.00
2023-05-17T05:58:27.469Z,13.00
2023-05-17T06:00:57.381Z,13.00
2023-05-17T06:03:25.822Z,13.00
2023-05-17T06:05:54.368Z,13.00
2023-05-17T06:08:22.903Z,13.10
2023-05-17T06:10:51.350Z,13.20
2023-05-17T06:13:19.963Z,13.30
2023-05-17T06:15:48.417Z,13.30
2023-05-17T06:18:18.252Z,13.40
2023-05-17T06:20:48.511Z,13.50
2023-05-17T06:23:17.068Z,13.50
2023-05-17T06:25:45.648Z,13.50
2023-05-17T06:28:14.052Z,13.60
2023-05-17T06:30:43.047Z,13.60
2023-05-17T06:33:11.654Z,13.70
2023-05-17T06:35:54.802Z,13.70
2023-05-17T06:38:24.519Z,13.50
2023-05-17T06:40:54.669Z,13.60
2023-05-17T06:43:23.394Z,13.70
2023-05-17T06:45:51.940Z,13.70
2023-05-17T06:48:20.311Z,13.80
2023-05-17T06:50:50.018Z,13.70
2023-05-17T06:53:18.718Z,13.70
2023-05-17T06:55:47.359Z,13.60
2023-05-17T06:58:15.863Z,13.60
2023-05-17T07:00:44.370Z,13.70
2023-05-17T07:03:12.831Z,13.70
2023-05-17T07:05:41.442Z,13.60
2023-05-17T07:08:11.158Z,13.70
2023-05-17T07:10:40.062Z,13.80
2023-05-17T07:13:08.492Z,13.90
2023-05-17T07:15:37.053Z,13.80
2023-05-17T07:18:05.887Z,13.90
2023-05-17T07:20:34.417Z,14.00
2023-05-17T07:23:02.971Z,13.90
2023-05-17T07:25:33.041Z,13.90
2023-05-17T07:28:01.436Z,14.10
2023-05-17T07:30:30.253Z,14.00
2023-05-17T07:32:59.118Z,14.20
2023-05-17T07:35:27.833Z,14.30
2023-05-17T07:37:56.497Z,14.40
2023-05-17T07:40:25.071Z,14.40
2023-05-17T07:42:54.831Z,14.40
2023-05-17T07:45:23.385Z,14.40
2023-05-17T07:47:53.008Z,14.50
2023-05-17T07:50:22.393Z,14.50
2023-05-17T07:52:50.922Z,14.50
2023-05-17T07:55:20.654Z,14.40
2023-05-17T07:57:49.106Z,14.40
2023-05-17T08:00:20.132Z,14.50
2023-05-17T08:02:48.563Z,14.30
2023-05-17T08:05:17.086Z,14.50
2023-05-17T08:07:45.652Z,14.60
2023-05-17T08:10:14.100Z,14.60
2023-05-17T08:12:42.696Z,14.80
2023-05-17T08:15:11.800Z,14.90
2023-05-17T08:17:41.609Z,15.10
2023-05-17T08:20:11.198Z,15.10
2023-05-17T08:22:39.811Z,14.90
2023-05-17T08:25:11.949Z,15.00
2023-05-17T08:27:40.390Z,15.20
2023-05-17T08:30:14.826Z,15.00
2023-05-17T08:32:48.156Z,14.80
2023-05-17T08:35:16.684Z,14.80
2023-05-17T08:37:45.192Z,14.90
2023-05-17T08:40:15.117Z,15.00
2023-05-17T08:42:44.499Z,15.10
2023-05-17T08:45:14.277Z,15.20
2023-05-17T08:47:44.127Z,15.10
2023-05-17T08:50:14.461Z,15.30
2023-05-17T08:52:46.062Z,15.40
2023-05-17T08:55:16.426Z,15.50
2023-05-17T08:57:47.133Z,15.50
2023-05-17T09:00:20.634Z,15.80
2023-05-17T09:02:49.864Z,16.00
2023-05-17T09:05:20.454Z,16.30
2023-05-17T09:07:50.472Z,16.40
2023-05-17T09:10:19.586Z,16.70
2023-05-17T09:12:49.920Z,16.20
2023-05-17T09:15:19.998Z,16.30
2023-05-17T09:17:53.711Z,16.20
2023-05-17T09:20:34.073Z,16.50
2023-05-17T09:23:02.975Z,16.70
2023-05-17T09:25:32.018Z,17.20
2023-05-17T09:28:03.306Z,17.30
2023-05-17T09:30:32.681Z,17.70
2023-05-17T09:33:07.238Z,17.50
2023-05-17T09:35:38.438Z,17.60
2023-05-17T09:38:11.366Z,17.60
2023-05-17T09:40:40.967Z,17.70
2023-05-17T09:43:09.723Z,17.60
2023-05-17T09:45:38.387Z,17.00
2023-05-17T09:48:14.859Z,16.80
2023-05-17T09:50:49.329Z,16.90
2023-05-17T09:53:27.796Z,17.20
2023-05-17T09:55:58.651Z,17.30
2023-05-17T09:58:28.770Z,17.20
2023-05-17T10:01:00.941Z,17.30
2023-05-17T10:03:36.495Z,17.50
2023-05-17T10:06:09.931Z,17.80
2023-05-17T10:08:46.057Z,17.90
2023-05-17T10:11:14.588Z,18.10
2023-05-17T10:13:48.855Z,17.70
2023-05-17T10:16:18.701Z,17.70
2023-05-17T10:18:48.595Z,17.80
2023-05-17T10:21:19.773Z,18.20
2023-05-17T10:23:49.199Z,18.40
2023-05-17T10:26:18.160Z,18.50
2023-05-17T10:28:47.399Z,17.90
2023-05-17T10:31:16.965Z,18.20
2023-05-17T10:33:48.576Z,18.10
2023-05-17T10:36:19.300Z,18.30
2023-05-17T10:38:48.567Z,18.50
2023-05-17T10:41:18.223Z,18.50
2023-05-17T10:43:47.450Z,17.90
2023-05-17T10:46:21.385Z,17.90
2023-05-17T10:48:52.146Z,17.70
2023-05-17T10:51:25.913Z,16.90
2023-05-17T10:54:11.743Z,17.70
2023-05-17T10:56:43.996Z,17.90
2023-05-17T10:59:26.892Z,18.20
2023-05-17T11:01:59.805Z,18.60
2023-05-17T11:04:29.579Z,18.40
2023-05-17T11:07:32.575Z,18.50
2023-05-17T11:10:14.167Z,18.80
2023-05-17T11:12:44.855Z,18.10
2023-05-17T11:15:14.713Z,17.20
2023-05-17T11:17:51.713Z,17.50
2023-05-17T11:20:36.898Z,17.00
2023-05-17T11:23:08.802Z,17.40
2023-05-17T11:25:38.926Z,17.90
2023-05-17T11:28:11.297Z,17.70
2023-05-17T11:30:43.542Z,16.90
2023-05-17T11:33:24.979Z,17.30
2023-05-17T11:36:06.293Z,17.60
2023-05-17T11:38:36.071Z,17.30
2023-05-17T11:43:50.845Z,17.40
2023-05-17T11:46:21.398Z,17.70
2023-05-17T11:48:52.116Z,18.10
2023-05-17T11:51:23.812Z,17.80
2023-05-17T11:53:56.657Z,18.30
2023-05-17T11:56:35.516Z,16.70
2023-05-17T11:59:11.290Z,16.70
2023-05-17T12:01:47.038Z,16.90
2023-05-17T12:04:15.601Z,17.90
2023-05-17T12:06:45.672Z,18.10
2023-05-17T12:09:17.907Z,18.20
2023-05-17T12:11:47.762Z,18.00
2023-05-17T12:14:17.964Z,17.90
2023-05-17T12:16:49.024Z,18.30
2023-05-17T12:19:20.801Z,18.70
2023-05-17T12:21:49.618Z,17.80
2023-05-17T12:24:19.738Z,17.00
2023-05-17T12:26:48.999Z,17.10
2023-05-17T12:29:22.944Z,17.50
2023-05-17T12:31:53.372Z,18.00
2023-05-17T12:34:22.150Z,17.90
2023-05-17T12:36:51.365Z,17.90
2023-05-17T12:39:24.097Z,18.40
2023-05-17T12:41:54.023Z,18.00
2023-05-17T12:44:22.559Z,18.20
2023-05-17T12:46:53.979Z,18.50
2023-05-17T12:49:23.445Z,18.50
2023-05-17T12:51:52.155Z,18.30
2023-05-17T12:54:31.405Z,18.80
2023-05-17T12:56:59.893Z,18.70
2023-05-17T12:59:29.311Z,19.00
2023-05-17T13:01:58.889Z,19.00
2023-05-17T13:04:31.855Z,18.80
2023-05-17T13:07:02.785Z,18.40
2023-05-17T13:09:34.297Z,18.40
2023-05-17T13:12:04.507Z,18.30
2023-05-17T13:14:41.931Z,18.20
2023-05-17T13:17:13.671Z,18.50
2023-05-17T13:19:42.375Z,18.10
2023-05-17T13:22:11.660Z,17.80
2023-05-17T13:24:41.566Z,17.70
2023-05-17T13:27:10.366Z,18.60
2023-05-17T13:29:40.932Z,18.90
2023-05-17T13:32:11.500Z,18.80
2023-05-17T13:34:40.572Z,17.80
2023-05-17T13:37:12.074Z,18.20
2023-05-17T13:39:42.794Z,17.90
2023-05-17T13:42:11.663Z,17.70
2023-05-17T13:44:40.700Z,17.90
2023-05-17T13:47:09.215Z,17.60
2023-05-17T13:49:38.290Z,18.00
2023-05-17T13:52:08.878Z,18.40
2023-05-17T13:54:38.142Z,17.90
2023-05-17T13:57:08.654Z,18.20
2023-05-17T13:59:37.180Z,18.70
2023-05-17T14:02:05.897Z,18.60
2023-05-17T14:04:35.052Z,18.80
2023-05-17T14:07:04.114Z,18.40
2023-05-17T14:09:34.350Z,18.20
2023-05-17T14:12:03.257Z,18.50
2023-05-17T14:14:33.157Z,18.60
2023-05-17T14:17:02.465Z,19.00
2023-05-17T14:19:31.099Z,19.10
2023-05-17T14:21:59.714Z,19.20
2023-05-17T14:24:28.137Z,18.70
2023-05-17T14:26:57.757Z,19.10
2023-05-17T14:29:27.034Z,18.90
2023-05-17T14:31:56.689Z,17.80
2023-05-17T14:34:25.445Z,17.80
2023-05-17T14:36:54.089Z,17.60
2023-05-17T14:39:22.638Z,18.30
2023-05-17T14:41:51.135Z,19.20
2023-05-17T14:44:19.667Z,19.00
2023-05-17T14:46:48.152Z,18.20
2023-05-17T14:49:17.913Z,18.40
2023-05-17T14:51:46.451Z,18.70
2023-05-17T14:54:14.898Z,19.30
2023-05-17T14:56:43.608Z,18.50
2023-05-17T14:59:12.648Z,19.10
2023-05-17T15:01:41.348Z,19.30
2023-05-17T15:04:10.409Z,18.10
2023-05-17T15:06:40.188Z,18.10
2023-05-17T15:09:13.019Z,18.70
2023-05-17T15:11:42.060Z,19.30
2023-05-17T15:14:10.507Z,18.80
2023-05-17T15:16:38.978Z,18.80
2023-05-17T15:19:08.155Z,18.50
2023-05-17T15:21:36.733Z,18.00
2023-05-17T15:24:07.027Z,18.50
2023-05-17T15:26:35.468Z,18.70
2023-05-17T15:29:03.904Z,19.20
2023-05-17T15:31:32.760Z,19.10
2023-05-17T15:34:01.580Z,19.10
2023-05-17T15:36:30.075Z,18.50
2023-05-17T15:38:58.493Z,18.20
2023-05-17T15:41:30.206Z,17.90
2023-05-17T15:43:58.960Z,17.80
2023-05-17T15:46:27.418Z,18.80
2023-05-17T15:48:57.002Z,17.50
2023-05-17T15:51:25.982Z,18.10
2023-05-17T15:53:54.448Z,18.80
2023-05-17T15:56:23.171Z,19.10
2023-05-17T15:58:53.002Z,19.00
2023-05-17T16:01:21.877Z,19.40
2023-05-17T16:03:50.625Z,19.80
2023-05-17T16:08:48.231Z,19.70
2023-05-17T16:11:17.436Z,19.30
2023-05-17T16:13:46.159Z,19.20
2023-05-17T16:16:16.235Z,19.20
2023-05-17T16:18:44.962Z,19.00
2023-05-17T16:21:13.601Z,18.20
2023-05-17T16:23:42.279Z,17.00
2023-05-17T16:26:10.812Z,16.60
2023-05-17T16:28:39.294Z,16.50
2023-05-17T16:31:08.177Z,16.30
2023-05-17T16:33:37.813Z,16.20
2023-05-17T16:36:06.789Z,16.20
2023-05-17T16:38:35.253Z,16.40
2023-05-17T16:41:03.904Z,16.20
2023-05-17T16:43:32.394Z,16.00
2023-05-17T16:46:01.035Z,16.00
2023-05-17T16:48:29.619Z,15.90
2023-05-17T16:50:59.832Z,15.80
2023-05-17T16:53:28.520Z,15.90
2023-05-17T16:55:56.998Z,15.70
2023-05-17T16:58:26.054Z,15.60
2023-05-17T17:00:54.735Z,15.60
2023-05-17T17:03:23.251Z,15.70
2023-05-17T17:05:51.810Z,15.60
2023-05-17T17:08:21.406Z,15.50
2023-05-17T17:10:50.226Z,15.50
2023-05-17T17:13:18.772Z,15.50
2023-05-17T17:15:47.461Z,15.30
2023-05-17T17:18:17.570Z,15.30
2023-05-17T17:20:46.435Z,15.40
2023-05-17T17:23:14.750Z,15.90
2023-05-17T17:25:44.340Z,16.20
2023-05-17T17:28:12.926Z,16.60
2023-05-17T17:30:41.526Z,16.50
2023-05-17T17:33:10.033Z,16.40
2023-05-17T17:35:38.870Z,16.60
2023-05-17T17:38:07.576Z,16.60
2023-05-17T17:40:36.222Z,16.60
2023-05-17T17:43:06.197Z,16.40
2023-05-17T17:45:34.870Z,16.20
2023-05-17T17:48:03.624Z,16.00
2023-05-17T17:50:32.506Z,15.90
2023-05-17T17:53:01.148Z,16.00
2023-05-17T17:55:29.741Z,16.20
2023-05-17T17:57:58.197Z,16.00
2023-05-17T18:00:28.369Z,16.00
2023-05-17T18:02:57.567Z,16.10
2023-05-17T18:05:26.483Z,16.00
2023-05-17T18:07:55.693Z,16.00
2023-05-17T18:10:24.108Z,16.00
2023-05-17T18:12:52.681Z,16.10
2023-05-17T18:15:21.203Z,16.10
2023-05-17T18:17:52.182Z,16.00
2023-05-17T18:20:22.260Z,15.90
2023-05-17T18:22:50.695Z,15.60
2023-05-17T18:25:19.312Z,15.40
2023-05-17T18:27:47.805Z,15.50
2023-05-17T18:30:16.606Z,15.50
2023-05-17T18:32:45.188Z,15.50
2023-05-17T18:35:14.959Z,15.40
2023-05-17T18:37:43.486Z,15.60
2023-05-17T18:40:12.867Z,15.30
2023-05-17T18:42:41.295Z,15.50
2023-05-17T18:45:10.765Z,15.40
2023-05-17T18:47:39.223Z,15.50
2023-05-17T18:50:08.652Z,15.10
2023-05-17T18:52:38.475Z,15.00
2023-05-17T18:55:07.371Z,15.20
2023-05-17T18:57:35.763Z,15.10
2023-05-17T19:00:04.889Z,15.10
2023-05-17T19:02:33.446Z,15.20
2023-05-17T19:05:02.062Z,15.10
2023-05-17T19:07:30.482Z,14.70
2023-05-17T19:10:00.562Z,15.00
2023-05-17T19:12:29.376Z,15.00
2023-05-17T19:14:57.995Z,14.80
2023-05-17T19:17:26.513Z,14.80
2023-05-17T19:19:55.041Z,14.70
2023-05-17T19:22:23.421Z,14.70
2023-05-17T19:24:51.895Z,14.70
2023-05-17T19:27:21.675Z,14.90
2023-05-17T19:29:50.174Z,14.60
2023-05-17T19:32:20.125Z,14.50
2023-05-17T19:34:48.594Z,14.50
2023-05-17T19:37:17.105Z,14.50
2023-05-17T19:39:46.102Z,14.20
2023-05-17T19:42:14.630Z,14.10
2023-05-17T19:44:44.211Z,14.20
2023-05-17T19:47:13.052Z,14.10
2023-05-17T19:49:41.764Z,14.10
2023-05-17T19:52:10.327Z,14.10
2023-05-17T19:54:38.893Z,14.10
2023-05-17T19:57:08.029Z,14.00
2023-05-17T19:59:36.635Z,14.00
2023-05-17T20:02:06.629Z,14.00
2023-05-17T20:04:35.379Z,13.90
2023-05-17T20:07:03.796Z,13.90
2023-05-17T20:09:32.255Z,13.80
2023-05-17T20:12:01.108Z,13.80
2023-05-17T20:14:29.587Z,13.80
2023-05-17T20:16:57.983Z,13.70
2023-05-17T20:19:28.111Z,13.70
2023-05-17T20:21:56.610Z,13.60
2023-05-17T20:24:25.996Z,13.70
2023-05-17T20:26:54.522Z,13.70
2023-05-17T20:29:23.042Z,13.70
2023-05-17T20:31:51.650Z,13.60
2023-05-17T20:34:20.348Z,13.40
2023-05-17T20:36:50.119Z,13.40
2023-05-17T20:39:19.709Z,13.50
2023-05-17T20:41:50.184Z,13.40
2023-05-17T20:44:20.270Z,13.40
2023-05-17T20:46:49.238Z,13.20
2023-05-17T20:49:18.205Z,13.20
2023-05-17T20:51:46.954Z,13.30
2023-05-17T20:54:16.811Z,13.30
2023-05-17T20:56:45.243Z,13.10
2023-05-17T20:59:14.036Z,13.20
2023-05-17T21:01:42.502Z,13.10
2023-05-17T21:04:11.301Z,13.00
2023-05-17T21:06:39.852Z,13.10
2023-05-17T21:09:09.143Z,13.10
2023-05-17T21:11:39.030Z,13.10
2023-05-17T21:14:07.552Z,13.10
2023-05-17T21:16:36.401Z,13.10
2023-05-17T21:19:04.987Z,13.10
2023-05-17T21:21:33.471Z,13.10
2023-05-17T21:24:01.993Z,13.00
2023-05-17T21:26:30.670Z,13.00
2023-05-17T21:29:00.602Z,13.10
2023-05-17T21:31:31.825Z,13.00
2023-05-17T21:34:00.426Z,12.80
2023-05-17T21:36:29.044Z,12.80
2023-05-17T21:38:57.619Z,12.70
2023-05-17T21:41:26.305Z,12.80
2023-05-17T21:43:54.815Z,12.70
2023-05-17T21:46:24.740Z,12.70
2023-05-17T21:48:53.351Z,12.60
2023-05-17T21:51:22.660Z,12.70
2023-05-17T21:53:51.346Z,12.80
2023-05-17T21:56:19.905Z,12.70
2023-05-17T21:58:48.291Z,12.70
2023-05-17T22:01:20.061Z,12.60
2023-05-17T22:03:52.040Z,12.70
2023-05-17T22:06:21.277Z,12.60
2023-05-17T22:08:49.790Z,12.60
2023-05-17T22:11:18.561Z,12.60
2023-05-17T22:13:47.129Z,12.60
2023-05-17T22:16:15.545Z,12.50
2023-05-17T22:18:45.482Z,12.70
2023-05-17T22:21:15.580Z,12.60
2023-05-17T22:23:44.026Z,12.60
2023-05-17T22:26:12.671Z,12.60
2023-05-17T22:28:41.309Z,12.50
2023-05-17T22:31:10.111Z,12.60
2023-05-17T22:33:38.577Z,12.40
2023-05-17T22:36:07.359Z,12.40
2023-05-17T22:38:37.006Z,12.50
2023-05-17T22:41:05.446Z,12.40
2023-05-17T22:43:33.844Z,12.30
2023-05-17T22:46:02.413Z,12.40
2023-05-17T22:48:32.129Z,12.30
2023-05-17T22:51:01.049Z,12.20
2023-05-17T22:53:30.391Z,12.30
2023-05-17T22:56:00.059Z,12.20
2023-05-17T22:58:28.649Z,12.20
2023-05-17T23:00:57.556Z,12.10
2023-05-17T23:03:26.135Z,12.10
2023-05-17T23:06:02.729Z,12.10
2023-05-17T23:08:31.352Z,12.00
2023-05-17T23:11:02.017Z,11.90
2023-05-17T23:13:30.395Z,11.90
2023-05-17T23:15:58.948Z,12.00
2023-05-17T23:18:27.943Z,11.90
2023-05-17T23:20:56.407Z,11.90
2023-05-17T23:23:24.883Z,11.90
2023-05-17T23:25:56.428Z,11.90
2023-05-17T23:28:26.668Z,11.90
2023-05-17T23:30:55.203Z,11.90
2023-05-17T23:33:23.668Z,11.80
2023-05-17T23:35:53.537Z,11.80
2023-05-17T23:38:22.311Z,11.80
2023-05-17T23:40:51.452Z,11.80
2023-05-17T23:43:19.917Z,11.80
2023-05-17T23:45:49.690Z,11.80
2023-05-17T23:48:20.806Z,11.80
2023-05-17T23:50:49.889Z,11.80
2023-05-17T23:53:18.725Z,11.80
2023-05-17T23:55:47.429Z,11.70
2023-05-17T23:58:15.800Z,11.70
